»·PEaware :: DAL1445 NONE-KSBP

DAL1445 :: NONE-KSBP

FLIGHT INFORMATION

Flight Status: Arrived
Operator:
Delta Air Lines
More flights by this operator :: More flights under this callsign
Pilot: Julius R. (30527)
Aircraft: BOEING 767-300
(B763)
More flights by this aircraft type
Origin: NONE
Destination: KSBP San Luis Co Regl
United States
More flights between these airports :: More routes between these airports
Route: +
File this flight plan on PilotEdge
Remarks:
Altitude:
(Current/Filed)
0ft
Speed:
(Current/Filed)
0kts
Departed: 01-Aug-20 03:57 PM
Arrived: 01-Aug-20 05:12 PM
Distance/Time
Traveled:
Not Available
Distance/Time
To Go:
Arrived

Flight Plot

Page will automatically refresh every two minutes.


Map Options




Map Legend


Flown Route
Filed Route
Departure Airport
Arrival Airport
Navaid (VOR, NDB)
Fix

Horizontal Profiles

Position Reports

Time Latitude Longitude Heading Altitude Ground
Speed
01-Aug-20 15:56 35.309287 -120.775403 302 4994ft 242kts
01-Aug-20 15:56 35.340330 -120.835681 286 4992ft 248kts
01-Aug-20 15:58 35.287839 -120.882842 151 5013ft 274kts
01-Aug-20 15:59 35.243302 -120.806672 122 5001ft 277kts
01-Aug-20 15:59 35.209350 -120.739791 122 5001ft 277kts
01-Aug-20 16:00 35.168695 -120.659650 122 5002ft 277kts
01-Aug-20 16:01 35.128359 -120.580013 122 5007ft 275kts
01-Aug-20 16:03 35.081754 -120.487745 122 5019ft 271kts
01-Aug-20 16:03 35.048993 -120.422830 122 5026ft 269kts
01-Aug-20 16:04 35.009680 -120.344879 122 5028ft 270kts
01-Aug-20 16:05 34.970311 -120.266369 122 5027ft 271kts
01-Aug-20 16:06 34.922982 -120.198221 163 5021ft 257kts
01-Aug-20 16:07 34.865951 -120.218763 240 5030ft 215kts
01-Aug-20 16:08 34.834592 -120.288488 243 3246ft 256kts
01-Aug-20 16:09 34.832221 -120.370018 301 2298ft 233kts
01-Aug-20 16:10 34.874728 -120.423738 314 1152ft 223kts
01-Aug-20 16:11 34.904699 -120.459978 327 272ft 22kts
01-Aug-20 16:12 34.905735 -120.459315 42 272ft 2kts
01-Aug-20 16:13 34.901569 -120.453855 136 272ft 42kts
01-Aug-20 16:14 34.894515 -120.445443 135 272ft 22kts
01-Aug-20 16:15 34.893496 -120.445134 188 272ft 0kts
01-Aug-20 16:16 34.892938 -120.445970 307 272ft 2kts
01-Aug-20 16:17 34.908120 -120.464035 316 1241ft 156kts
01-Aug-20 16:18 34.952266 -120.509999 320 4731ft 228kts
01-Aug-20 16:19 35.007190 -120.554514 355 5026ft 244kts
01-Aug-20 16:20 35.038306 -120.494111 118 5038ft 259kts
01-Aug-20 16:21 34.991527 -120.427741 132 5026ft 260kts
01-Aug-20 16:22 34.943137 -120.361546 132 5026ft 261kts
01-Aug-20 16:23 34.894806 -120.295167 132 5026ft 263kts
01-Aug-20 16:24 34.846260 -120.228011 132 5021ft 264kts
01-Aug-20 16:25 34.788039 -120.190513 202 3990ft 233kts
01-Aug-20 16:26 34.747751 -120.237221 279 3028ft 203kts
01-Aug-20 16:27 34.782370 -120.291686 308 3013ft 204kts
01-Aug-20 16:28 34.815705 -120.346721 303 3063ft 203kts
01-Aug-20 16:29 34.847925 -120.401986 316 2993ft 199kts
01-Aug-20 16:30 34.888522 -120.440978 312 450ft 177kts
01-Aug-20 16:31 34.903419 -120.456746 42 272ft 12kts
01-Aug-20 16:32 34.902903 -120.455480 135 273ft 25kts
01-Aug-20 16:33 34.893685 -120.445169 185 272ft 8kts
01-Aug-20 16:34 34.893076 -120.446148 313 272ft 9kts
01-Aug-20 16:35 34.919297 -120.475356 321 2403ft 175kts
01-Aug-20 16:36 34.966261 -120.518141 322 4286ft 215kts
01-Aug-20 16:37 35.021115 -120.565034 338 5015ft 260kts
01-Aug-20 16:38 35.069680 -120.520830 97 5044ft 266kts
01-Aug-20 16:39 35.025974 -120.448038 132 5026ft 269kts
01-Aug-20 16:40 34.976038 -120.379978 132 5026ft 271kts
01-Aug-20 16:41 34.926168 -120.311860 132 4243ft 264kts
01-Aug-20 16:42 34.879694 -120.248563 132 3458ft 249kts
01-Aug-20 16:43 34.825294 -120.230102 216 3017ft 200kts
01-Aug-20 16:44 34.781515 -120.265504 225 2999ft 184kts
01-Aug-20 16:45 34.795215 -120.315999 309 3011ft 181kts
01-Aug-20 16:46 34.827258 -120.361824 302 2804ft 168kts
01-Aug-20 16:47 34.855972 -120.403963 317 2121ft 149kts
01-Aug-20 16:48 34.885041 -120.436876 317 535ft 143kts
01-Aug-20 16:49 34.912700 -120.468926 319 1274ft 169kts
01-Aug-20 16:50 34.964607 -120.494263 12 4385ft 244kts
01-Aug-20 16:51 35.026998 -120.476823 10 5871ft 215kts
01-Aug-20 16:52 35.080622 -120.461892 10 6648ft 205kts
01-Aug-20 16:53 35.142114 -120.444729 10 6627ft 249kts
01-Aug-20 16:54 35.213158 -120.416671 43 6601ft 282kts
01-Aug-20 16:55 35.213238 -120.332381 140 5425ft 277kts
01-Aug-20 16:56 35.146761 -120.345278 225 4025ft 262kts
01-Aug-20 16:57 35.118592 -120.409883 297 4021ft 198kts
01-Aug-20 16:58 35.143774 -120.463814 298 4008ft 175kts
01-Aug-20 16:59 35.169473 -120.522063 298 3361ft 226kts
01-Aug-20 17:00 35.179312 -120.601760 234 1994ft 267kts
01-Aug-20 17:01 35.122414 -120.593901 111 2009ft 227kts
01-Aug-20 17:02 35.101017 -120.525372 109 2020ft 222kts
01-Aug-20 17:03 35.078811 -120.452840 109 2027ft 232kts
01-Aug-20 17:04 35.060495 -120.376192 75 2025ft 238kts
01-Aug-20 17:05 35.107356 -120.362408 301 2031ft 208kts
01-Aug-20 17:06 35.129150 -120.425270 293 2058ft 191kts
01-Aug-20 17:07 35.149605 -120.484921 296 2823ft 208kts
01-Aug-20 17:08 35.175957 -120.540881 304 2776ft 154kts
01-Aug-20 17:09 35.202857 -120.581177 306 1827ft 153kts
01-Aug-20 17:10 35.225934 -120.621127 306 583ft 131kts
01-Aug-20 17:11 35.237289 -120.639932 1 224ft 4kts
01-Aug-20 17:12 35.237587 -120.639906 5 223ft 0kts
01-Aug-20 17:13 35.237835 -120.638531 60 224ft 7kts
01-Aug-20 17:14 35.237895 -120.638394 62 224ft 0kts
01-Aug-20 17:15 35.237895 -120.638394 62 223ft 0kts
01-Aug-20 17:16 35.237895 -120.638394 62 223ft 0kts
01-Aug-20 17:17 35.237895 -120.638394 62 223ft 0kts
01-Aug-20 17:18 35.237895 -120.638394 62 223ft 0kts
01-Aug-20 17:19 35.237895 -120.638394 62 223ft 0kts
01-Aug-20 17:20 35.237895 -120.638394 62 223ft 0kts
01-Aug-20 17:21 35.237895 -120.638394 62 223ft 0kts
01-Aug-20 17:22 35.237895 -120.638394 62 223ft 0kts
01-Aug-20 17:23 35.237895 -120.638394 62 223ft 0kts
01-Aug-20 17:24 35.237895 -120.638394 62 223ft 0kts
01-Aug-20 17:25 35.237895 -120.638394 62 223ft 0kts

Navigation Log

Ident Type
Flight plan parsing failed, navigation log unavailable